createdAt,value
2023-06-11T00:01:00.293Z,21.40
2023-06-11T00:03:29.305Z,21.30
2023-06-11T00:05:57.332Z,21.20
2023-06-11T00:08:25.181Z,21.20
2023-06-11T00:10:53.056Z,21.20
2023-06-11T00:13:21.164Z,21.20
2023-06-11T00:15:49.167Z,21.10
2023-06-11T00:18:18.377Z,21.10
2023-06-11T00:20:47.330Z,21.00
2023-06-11T00:23:15.559Z,21.00
2023-06-11T00:25:43.430Z,20.80
2023-06-11T00:28:11.270Z,20.80
2023-06-11T00:30:39.208Z,20.70
2023-06-11T00:33:07.113Z,20.70
2023-06-11T00:35:35.061Z,20.80
2023-06-11T00:38:03.487Z,20.70
2023-06-11T00:40:33.359Z,20.80
2023-06-11T00:43:04.132Z,20.70
2023-06-11T00:45:33.612Z,20.70
2023-06-11T00:48:01.443Z,20.80
2023-06-11T00:50:30.990Z,20.80
2023-06-11T00:52:58.996Z,20.80
2023-06-11T00:55:27.299Z,20.80
2023-06-11T00:57:55.232Z,20.70
2023-06-11T01:00:23.350Z,20.60
2023-06-11T01:03:10.078Z,20.60
2023-06-11T01:05:45.441Z,20.50
2023-06-11T01:08:21.175Z,20.50
2023-06-11T01:10:53.689Z,20.40
2023-06-11T01:13:21.963Z,20.40
2023-06-11T01:15:50.909Z,20.40
2023-06-11T01:18:30.214Z,20.50
2023-06-11T01:21:19.720Z,20.40
2023-06-11T01:24:58.468Z,20.30
2023-06-11T01:28:09.008Z,20.30
2023-06-11T01:30:51.202Z,20.30
2023-06-11T01:33:21.563Z,20.30
2023-06-11T01:35:59.610Z,20.20
2023-06-11T01:38:42.969Z,20.20
2023-06-11T01:41:17.466Z,20.00
2023-06-11T01:43:46.311Z,19.80
2023-06-11T01:46:15.086Z,19.80
2023-06-11T01:48:43.327Z,19.90
2023-06-11T01:51:15.353Z,19.80
2023-06-11T01:53:45.167Z,19.80
2023-06-11T01:56:13.205Z,19.70
2023-06-11T01:58:41.652Z,19.60
2023-06-11T02:01:09.592Z,19.40
2023-06-11T02:03:37.846Z,19.30
2023-06-11T02:06:06.077Z,19.30
2023-06-11T02:08:34.175Z,19.20
2023-06-11T02:11:05.085Z,19.40
2023-06-11T02:13:33.183Z,19.40
2023-06-11T02:16:01.229Z,19.40
2023-06-11T02:18:29.179Z,19.40
2023-06-11T02:20:57.139Z,19.40
2023-06-11T02:23:25.154Z,19.30
2023-06-11T02:25:52.947Z,19.30
2023-06-11T02:28:20.891Z,19.30
2023-06-11T02:30:49.218Z,19.20
2023-06-11T02:33:17.413Z,19.10
2023-06-11T02:35:45.627Z,19.10
2023-06-11T02:38:13.753Z,19.20
2023-06-11T02:40:41.576Z,19.20
2023-06-11T02:43:09.395Z,19.10
2023-06-11T02:45:37.264Z,19.00
2023-06-11T02:48:05.971Z,19.10
2023-06-11T02:50:33.936Z,19.10
2023-06-11T02:53:01.902Z,19.20
2023-06-11T02:55:29.691Z,19.10
2023-06-11T02:57:57.501Z,19.10
2023-06-11T03:00:26.868Z,19.10
2023-06-11T03:02:55.578Z,19.00
2023-06-11T03:05:29.042Z,19.10
2023-06-11T03:07:57.824Z,19.20
2023-06-11T03:10:29.139Z,19.10
2023-06-11T03:12:58.006Z,19.00
2023-06-11T03:15:25.960Z,18.90
2023-06-11T03:17:54.371Z,18.90
2023-06-11T03:20:24.229Z,18.90
2023-06-11T03:22:53.139Z,18.90
2023-06-11T03:25:22.011Z,18.80
2023-06-11T03:27:50.818Z,18.90
2023-06-11T03:30:19.509Z,18.90
2023-06-11T03:32:47.557Z,18.90
2023-06-11T03:35:16.841Z,18.90
2023-06-11T03:37:44.849Z,18.90
2023-06-11T03:40:17.827Z,18.80
2023-06-11T03:42:47.591Z,18.80
2023-06-11T03:45:15.578Z,18.80
2023-06-11T03:47:44.347Z,18.90
2023-06-11T03:50:13.650Z,18.90
2023-06-11T03:52:42.593Z,18.90
2023-06-11T03:55:11.597Z,18.90
2023-06-11T03:57:39.891Z,18.90
2023-06-11T04:00:10.079Z,18.90
2023-06-11T04:02:46.610Z,19.00
2023-06-11T04:05:17.949Z,19.00
2023-06-11T04:07:52.620Z,18.90
2023-06-11T04:10:20.806Z,18.90
2023-06-11T04:12:49.666Z,19.00
2023-06-11T04:15:17.569Z,19.00
2023-06-11T04:17:46.895Z,19.10
2023-06-11T04:20:14.944Z,19.10
2023-06-11T04:22:42.906Z,19.10
2023-06-11T04:25:13.538Z,19.10
2023-06-11T04:27:41.903Z,19.20
2023-06-11T04:30:14.380Z,19.20
2023-06-11T04:32:43.634Z,19.20
2023-06-11T04:35:15.838Z,19.20
2023-06-11T04:37:47.318Z,19.30
2023-06-11T04:40:22.120Z,19.30
2023-06-11T04:42:50.759Z,19.40
2023-06-11T04:45:20.333Z,19.50
2023-06-11T04:47:49.284Z,19.60
2023-06-11T04:50:22.548Z,19.60
2023-06-11T04:52:57.835Z,19.60
2023-06-11T04:55:27.863Z,19.70
2023-06-11T04:57:57.906Z,19.70
2023-06-11T05:00:28.368Z,19.80
2023-06-11T05:02:57.558Z,20.00
2023-06-11T05:05:26.202Z,20.00
2023-06-11T05:07:54.538Z,20.10
2023-06-11T05:10:22.642Z,20.20
2023-06-11T05:12:52.193Z,20.20
2023-06-11T05:15:21.642Z,20.20
2023-06-11T05:17:52.217Z,20.40
2023-06-11T05:20:21.232Z,20.40
2023-06-11T05:22:50.849Z,20.50
2023-06-11T05:25:21.195Z,20.60
2023-06-11T05:28:04.705Z,20.70
2023-06-11T05:30:40.366Z,21.30
2023-06-11T05:33:12.024Z,22.40
2023-06-11T05:35:45.909Z,23.70
2023-06-11T05:38:15.384Z,25.00
2023-06-11T05:40:43.768Z,25.40
2023-06-11T05:43:12.321Z,26.00
2023-06-11T05:45:51.399Z,26.40
2023-06-11T05:48:21.889Z,26.70
2023-06-11T05:50:50.176Z,27.50
2023-06-11T05:53:18.389Z,27.60
2023-06-11T05:55:47.642Z,27.30
2023-06-11T05:58:17.511Z,28.00
2023-06-11T06:00:46.031Z,28.80
2023-06-11T06:03:14.478Z,29.20
2023-06-11T06:05:44.031Z,30.10
2023-06-11T06:08:12.877Z,30.00
2023-06-11T06:10:41.377Z,30.10
2023-06-11T06:13:09.276Z,29.80
2023-06-11T06:15:38.679Z,29.90
2023-06-11T06:18:07.609Z,29.90
2023-06-11T06:20:40.236Z,29.50
2023-06-11T06:23:08.804Z,30.30
2023-06-11T06:25:39.629Z,30.50
2023-06-11T06:28:11.370Z,30.80
2023-06-11T06:30:41.231Z,30.60
2023-06-11T06:33:11.514Z,30.70
2023-06-11T06:35:44.249Z,30.80
2023-06-11T06:38:13.282Z,30.20
2023-06-11T06:40:43.542Z,31.20
2023-06-11T06:43:11.612Z,30.70
2023-06-11T06:45:42.737Z,31.00
2023-06-11T06:48:19.913Z,31.00
2023-06-11T06:50:48.198Z,30.60
2023-06-11T06:53:16.300Z,30.50
2023-06-11T06:55:48.482Z,30.50
2023-06-11T06:58:19.153Z,30.20
2023-06-11T07:00:48.012Z,30.40
2023-06-11T07:03:17.851Z,30.50
2023-06-11T07:05:46.204Z,31.00
2023-06-11T07:08:15.010Z,31.40
2023-06-11T07:10:56.706Z,31.60
2023-06-11T07:13:56.598Z,31.10
2023-06-11T07:16:26.401Z,30.90
2023-06-11T07:18:59.222Z,30.80
2023-06-11T07:21:27.626Z,30.80
2023-06-11T07:23:55.701Z,31.00
2023-06-11T07:26:23.535Z,32.00
2023-06-11T07:28:52.666Z,31.80
2023-06-11T07:31:20.707Z,31.20
2023-06-11T07:33:50.436Z,31.60
2023-06-11T07:36:19.334Z,31.00
2023-06-11T07:38:48.199Z,31.30
2023-06-11T07:41:18.925Z,32.20
2023-06-11T07:43:47.109Z,32.40
2023-06-11T07:46:17.014Z,31.90
2023-06-11T07:48:46.418Z,31.60
2023-06-11T07:51:19.163Z,31.80
2023-06-11T07:53:50.340Z,31.90
2023-06-11T07:56:18.503Z,32.20
2023-06-11T07:58:46.445Z,32.60
2023-06-11T08:01:14.380Z,32.20
2023-06-11T08:03:43.398Z,31.70
2023-06-11T08:06:11.828Z,31.90
2023-06-11T08:08:39.680Z,32.00
2023-06-11T08:11:07.529Z,32.20
2023-06-11T08:13:36.154Z,32.20
2023-06-11T08:16:04.978Z,32.00
2023-06-11T08:18:32.873Z,32.20
2023-06-11T08:21:02.154Z,32.50
2023-06-11T08:23:30.095Z,32.80
2023-06-11T08:26:00.435Z,33.10
2023-06-11T08:28:29.952Z,33.00
2023-06-11T08:30:58.736Z,32.80
2023-06-11T08:33:26.944Z,32.40
2023-06-11T08:35:54.911Z,32.90
2023-06-11T08:38:23.048Z,33.30
2023-06-11T08:40:50.927Z,32.80
2023-06-11T08:43:18.924Z,32.60
2023-06-11T08:45:47.841Z,32.60
2023-06-11T08:48:22.463Z,32.40
2023-06-11T08:50:51.696Z,32.90
2023-06-11T08:53:22.324Z,32.70
2023-06-11T08:55:51.044Z,32.90
2023-06-11T08:58:22.206Z,32.90
2023-06-11T09:00:50.734Z,33.20
2023-06-11T09:03:19.115Z,32.90
2023-06-11T09:05:49.789Z,32.90
2023-06-11T09:08:17.706Z,32.80
2023-06-11T09:10:52.952Z,32.20
2023-06-11T09:13:28.031Z,32.50
2023-06-11T09:15:57.672Z,32.40
2023-06-11T09:18:28.681Z,32.50
2023-06-11T09:21:03.684Z,32.50
2023-06-11T09:23:40.341Z,32.60
2023-06-11T09:26:09.131Z,33.10
2023-06-11T09:28:38.696Z,32.90
2023-06-11T09:31:06.932Z,32.50
2023-06-11T09:33:35.025Z,32.40
2023-06-11T09:36:03.732Z,31.90
2023-06-11T09:38:36.039Z,32.50
2023-06-11T09:41:09.941Z,32.80
2023-06-11T09:43:38.090Z,32.40
2023-06-11T09:46:09.005Z,32.70
2023-06-11T09:48:38.931Z,33.00
2023-06-11T09:51:07.967Z,33.00
2023-06-11T09:53:37.075Z,33.00
2023-06-11T09:56:11.718Z,32.90
2023-06-11T09:58:42.499Z,32.60
2023-06-11T10:01:12.709Z,32.30
2023-06-11T10:03:41.862Z,32.50
2023-06-11T10:06:25.739Z,32.00
2023-06-11T10:09:02.159Z,32.10
2023-06-11T10:11:42.385Z,32.00
2023-06-11T10:14:21.484Z,31.60
2023-06-11T10:16:56.189Z,31.20
2023-06-11T10:19:34.777Z,31.10
2023-06-11T10:22:04.622Z,31.00
2023-06-11T10:24:32.783Z,30.90
2023-06-11T10:27:15.474Z,31.00
2023-06-11T10:29:50.863Z,30.90
2023-06-11T10:32:24.521Z,30.80
2023-06-11T10:35:05.548Z,30.80
2023-06-11T10:37:39.064Z,30.90
2023-06-11T10:40:10.046Z,31.00
2023-06-11T10:42:44.621Z,31.00
2023-06-11T10:45:16.668Z,31.00
2023-06-11T10:47:52.391Z,31.10
2023-06-11T10:50:33.280Z,31.20
2023-06-11T10:53:14.577Z,31.20
2023-06-11T10:55:48.661Z,31.00
2023-06-11T10:58:25.872Z,31.00
2023-06-11T11:00:54.834Z,31.00
2023-06-11T11:03:25.214Z,31.00
2023-06-11T11:05:54.827Z,31.00
2023-06-11T11:08:25.679Z,31.20
2023-06-11T11:11:03.439Z,31.20
2023-06-11T11:13:33.121Z,30.90
2023-06-11T11:16:03.873Z,30.70
2023-06-11T11:18:31.852Z,30.70
2023-06-11T11:21:01.838Z,31.00
2023-06-11T11:23:34.031Z,30.90
2023-06-11T11:26:03.170Z,30.80
2023-06-11T11:28:36.351Z,30.70
2023-06-11T11:31:05.859Z,30.60
2023-06-11T11:33:37.289Z,30.70
2023-06-11T11:36:06.529Z,30.70
2023-06-11T11:38:39.751Z,30.70
2023-06-11T11:41:11.293Z,31.00
2023-06-11T11:43:44.817Z,31.30
2023-06-11T11:46:21.868Z,31.40
2023-06-11T11:48:49.859Z,31.40
2023-06-11T11:51:19.099Z,31.50
2023-06-11T11:53:47.556Z,31.20
2023-06-11T11:56:15.715Z,31.00
2023-06-11T11:58:45.504Z,31.10
2023-06-11T12:01:28.414Z,31.40
2023-06-11T12:04:03.559Z,31.20
2023-06-11T12:06:32.055Z,31.30
2023-06-11T12:09:00.194Z,31.40
2023-06-11T12:11:28.139Z,31.00
2023-06-11T12:13:56.954Z,30.90
2023-06-11T12:16:26.265Z,31.00
2023-06-11T12:19:06.825Z,30.80
2023-06-11T12:21:42.717Z,30.30
2023-06-11T12:24:13.499Z,30.00
2023-06-11T12:26:41.966Z,29.80
2023-06-11T12:29:11.677Z,30.00
2023-06-11T12:31:40.450Z,30.30
2023-06-11T12:34:11.305Z,30.60
2023-06-11T12:36:40.447Z,30.70
2023-06-11T12:39:12.375Z,31.20
2023-06-11T12:41:43.099Z,31.20
2023-06-11T12:44:14.381Z,30.90
2023-06-11T12:46:44.005Z,30.90
2023-06-11T12:49:11.890Z,30.90
2023-06-11T12:51:45.151Z,30.70
2023-06-11T12:54:15.871Z,30.80
2023-06-11T12:56:43.987Z,30.60
2023-06-11T12:59:11.925Z,30.40
2023-06-11T13:01:40.131Z,30.60
2023-06-11T13:04:08.154Z,30.70
2023-06-11T13:06:36.488Z,30.60
2023-06-11T13:09:04.531Z,31.00
2023-06-11T13:11:34.049Z,31.30
2023-06-11T13:14:01.886Z,31.50
2023-06-11T13:16:31.365Z,31.70
2023-06-11T13:19:01.167Z,31.70
2023-06-11T13:21:30.361Z,31.90
2023-06-11T13:23:58.393Z,32.00
2023-06-11T13:26:26.237Z,31.70
2023-06-11T13:28:54.037Z,31.60
2023-06-11T13:31:21.995Z,31.70
2023-06-11T13:33:50.007Z,31.50
2023-06-11T13:36:18.209Z,31.20
2023-06-11T13:38:46.696Z,31.20
2023-06-11T13:41:14.621Z,31.40
2023-06-11T13:43:42.663Z,31.40
2023-06-11T13:46:10.662Z,31.60
2023-06-11T13:48:38.668Z,31.40
2023-06-11T13:51:06.662Z,31.00
2023-06-11T13:53:36.559Z,31.00
2023-06-11T13:56:05.150Z,30.80
2023-06-11T13:58:33.210Z,30.60
2023-06-11T14:01:01.249Z,30.60
2023-06-11T14:03:29.646Z,30.60
2023-06-11T14:05:57.944Z,30.80
2023-06-11T14:08:25.817Z,30.50
2023-06-11T14:10:54.395Z,30.30
2023-06-11T14:13:22.273Z,30.10
2023-06-11T14:15:50.189Z,29.90
2023-06-11T14:18:19.311Z,29.70
2023-06-11T14:20:49.032Z,29.60
2023-06-11T14:23:16.888Z,29.60
2023-06-11T14:25:44.722Z,29.70
2023-06-11T14:28:12.619Z,29.90
2023-06-11T14:30:40.904Z,30.00
2023-06-11T14:33:08.598Z,29.90
2023-06-11T14:35:36.526Z,30.10
2023-06-11T14:38:04.839Z,30.40
2023-06-11T14:40:33.412Z,30.30
2023-06-11T14:43:01.287Z,30.30
2023-06-11T14:45:29.965Z,30.50
2023-06-11T14:47:57.940Z,30.50
2023-06-11T14:50:26.025Z,30.70
2023-06-11T14:52:53.908Z,30.80
2023-06-11T14:55:21.690Z,30.90
2023-06-11T14:57:49.544Z,30.60
2023-06-11T15:00:18.090Z,30.60
2023-06-11T15:02:46.137Z,30.60
2023-06-11T15:05:14.465Z,30.60
2023-06-11T15:07:42.239Z,30.60
2023-06-11T15:10:11.871Z,30.30
2023-06-11T15:12:39.946Z,30.10
2023-06-11T15:15:09.252Z,29.80
2023-06-11T15:17:37.809Z,29.80
2023-06-11T15:20:07.303Z,30.10
2023-06-11T15:22:38.953Z,30.20
2023-06-11T15:25:10.463Z,30.40
2023-06-11T15:27:38.870Z,30.60
2023-06-11T15:30:08.286Z,30.80
2023-06-11T15:32:36.317Z,30.90
2023-06-11T15:35:09.836Z,30.80
2023-06-11T15:37:40.347Z,31.10
2023-06-11T15:40:10.114Z,30.90
2023-06-11T15:42:38.698Z,30.50
2023-06-11T15:45:10.201Z,30.40
2023-06-11T15:47:41.872Z,30.40
2023-06-11T15:51:31.768Z,30.40
2023-06-11T15:54:03.486Z,30.40
2023-06-11T15:56:33.635Z,30.30
2023-06-11T15:59:01.928Z,30.30
2023-06-11T16:01:31.082Z,30.60
2023-06-11T16:03:59.859Z,30.60
2023-06-11T16:06:27.606Z,30.40
2023-06-11T16:08:55.562Z,30.40
2023-06-11T16:11:23.369Z,30.30
2023-06-11T16:13:51.324Z,30.60
2023-06-11T16:16:21.065Z,30.60
2023-06-11T16:18:48.880Z,30.50
2023-06-11T16:21:16.540Z,30.40
2023-06-11T16:23:44.503Z,30.30
2023-06-11T16:26:12.418Z,30.50
2023-06-11T16:28:40.215Z,30.70
2023-06-11T16:31:08.238Z,30.60
2023-06-11T16:33:55.594Z,30.80
2023-06-11T16:36:23.901Z,30.80
2023-06-11T16:38:54.088Z,30.30
2023-06-11T16:41:23.394Z,30.00
2023-06-11T16:43:53.107Z,29.70
2023-06-11T16:46:21.402Z,29.50
2023-06-11T16:48:52.001Z,29.40
2023-06-11T16:51:20.425Z,29.30
2023-06-11T16:53:48.214Z,29.20
2023-06-11T16:56:16.418Z,29.10
2023-06-11T16:58:44.305Z,29.00
2023-06-11T17:01:12.576Z,29.10
2023-06-11T17:03:40.770Z,29.00
2023-06-11T17:06:08.787Z,28.90
2023-06-11T17:08:36.630Z,29.00
2023-06-11T17:11:04.462Z,29.00
2023-06-11T17:13:32.209Z,28.90
2023-06-11T17:16:00.103Z,28.80
2023-06-11T17:18:28.777Z,28.80
2023-06-11T17:20:57.381Z,28.80
2023-06-11T17:23:26.587Z,28.80
2023-06-11T17:25:56.059Z,28.70
2023-06-11T17:28:23.946Z,28.70
2023-06-11T17:30:52.463Z,28.60
2023-06-11T17:33:21.795Z,28.70
2023-06-11T17:35:50.982Z,28.70
2023-06-11T17:38:19.417Z,28.60
2023-06-11T17:40:47.509Z,28.50
2023-06-11T17:43:15.599Z,28.40
2023-06-11T17:45:43.663Z,28.40
2023-06-11T17:48:12.253Z,28.30
2023-06-11T17:50:40.774Z,28.30
2023-06-11T17:53:08.804Z,28.30
2023-06-11T17:55:38.541Z,28.30
2023-06-11T17:58:06.938Z,28.30
2023-06-11T18:00:34.689Z,28.20
2023-06-11T18:03:03.326Z,28.10
2023-06-11T18:05:31.336Z,28.10
2023-06-11T18:07:59.296Z,28.00
2023-06-11T18:10:27.179Z,28.00
2023-06-11T18:12:56.204Z,28.00
2023-06-11T18:15:33.209Z,27.90
2023-06-11T18:18:05.096Z,27.80
2023-06-11T18:20:34.594Z,27.80
2023-06-11T18:23:03.005Z,27.80
2023-06-11T18:25:31.152Z,27.80
2023-06-11T18:28:00.406Z,27.70
2023-06-11T18:30:28.460Z,27.60
2023-06-11T18:32:56.613Z,27.60
2023-06-11T18:35:24.420Z,27.60
2023-06-11T18:37:52.510Z,27.50
2023-06-11T18:40:20.510Z,27.50
2023-06-11T18:42:49.486Z,27.50
2023-06-11T18:45:17.437Z,27.40
2023-06-11T18:47:45.322Z,27.30
2023-06-11T18:50:13.628Z,27.30
2023-06-11T18:52:43.159Z,27.20
2023-06-11T18:55:11.511Z,27.20
2023-06-11T18:57:40.523Z,27.10
2023-06-11T19:00:11.436Z,27.10
2023-06-11T19:02:40.024Z,27.00
2023-06-11T19:05:09.168Z,26.90
2023-06-11T19:07:40.742Z,26.80
2023-06-11T19:10:12.505Z,26.70
2023-06-11T19:12:42.951Z,26.60
2023-06-11T19:15:11.799Z,26.70
2023-06-11T19:17:39.902Z,26.60
2023-06-11T19:20:09.395Z,26.50
2023-06-11T19:22:38.774Z,26.50
2023-06-11T19:25:07.747Z,26.40
2023-06-11T19:27:37.369Z,26.30
2023-06-11T19:30:08.697Z,26.30
2023-06-11T19:32:37.170Z,26.20
2023-06-11T19:35:06.243Z,26.10
2023-06-11T19:37:36.039Z,26.00
2023-06-11T19:40:04.916Z,25.90
2023-06-11T19:42:36.347Z,25.80
2023-06-11T19:45:08.289Z,25.80
2023-06-11T19:47:36.387Z,25.70
2023-06-11T19:50:08.300Z,25.70
2023-06-11T19:52:37.546Z,25.60
2023-06-11T19:55:06.148Z,25.60
2023-06-11T19:57:34.086Z,25.50
2023-06-11T20:00:01.992Z,25.50
2023-06-11T20:02:40.092Z,25.40
2023-06-11T20:05:09.792Z,25.40
2023-06-11T20:07:37.582Z,25.30
2023-06-11T20:10:09.665Z,25.20
2023-06-11T20:12:37.869Z,25.10
2023-06-11T20:15:06.975Z,25.00
2023-06-11T20:17:34.922Z,25.00
2023-06-11T20:20:09.411Z,24.90
2023-06-11T20:22:37.912Z,25.00
2023-06-11T20:25:06.193Z,25.00
2023-06-11T20:27:34.112Z,24.80
2023-06-11T20:30:02.242Z,24.80
2023-06-11T20:32:30.362Z,24.70
2023-06-11T20:34:59.398Z,24.70
2023-06-11T20:37:27.267Z,24.60
2023-06-11T20:39:56.470Z,24.60
2023-06-11T20:42:24.402Z,24.50
2023-06-11T20:44:54.367Z,24.30
2023-06-11T20:47:22.840Z,24.20
2023-06-11T20:49:53.118Z,24.10
2023-06-11T20:52:21.379Z,24.00
2023-06-11T20:54:49.313Z,23.90
2023-06-11T20:57:17.124Z,23.90
2023-06-11T20:59:45.360Z,23.90
2023-06-11T21:02:13.517Z,23.80
2023-06-11T21:04:41.419Z,23.80
2023-06-11T21:07:09.313Z,23.70
2023-06-11T21:09:37.198Z,23.70
2023-06-11T21:12:06.137Z,23.60
2023-06-11T21:14:33.949Z,23.60
2023-06-11T21:17:01.748Z,23.50
2023-06-11T21:19:29.556Z,23.50
2023-06-11T21:21:57.700Z,23.30
2023-06-11T21:24:25.561Z,23.30
2023-06-11T21:26:54.707Z,23.20
2023-06-11T21:29:22.637Z,23.10
2023-06-11T21:31:52.560Z,23.10
2023-06-11T21:34:21.008Z,23.10
2023-06-11T21:36:49.483Z,23.20
2023-06-11T21:39:17.809Z,23.10
2023-06-11T21:41:45.898Z,22.90
2023-06-11T21:44:15.302Z,22.90
2023-06-11T21:46:43.471Z,22.90
2023-06-11T21:49:11.466Z,22.90
2023-06-11T21:51:39.341Z,22.90
2023-06-11T21:54:07.375Z,22.80
2023-06-11T21:56:35.559Z,22.80
2023-06-11T21:59:03.568Z,22.70
2023-06-11T22:01:31.427Z,22.70
2023-06-11T22:03:59.396Z,22.70
2023-06-11T22:06:27.408Z,22.60
2023-06-11T22:08:55.850Z,22.60
2023-06-11T22:11:26.147Z,22.50
2023-06-11T22:13:54.262Z,22.50
2023-06-11T22:16:24.052Z,22.60
2023-06-11T22:18:54.040Z,22.60
2023-06-11T22:21:22.988Z,22.60
2023-06-11T22:23:52.638Z,22.60
2023-06-11T22:26:22.608Z,22.60
2023-06-11T22:28:52.137Z,22.50
2023-06-11T22:31:20.187Z,22.40
2023-06-11T22:33:48.220Z,22.50
2023-06-11T22:36:16.529Z,22.50
2023-06-11T22:38:45.270Z,22.40
2023-06-11T22:41:13.007Z,22.40
2023-06-11T22:43:41.391Z,22.20
2023-06-11T22:46:09.164Z,22.20
2023-06-11T22:48:37.162Z,22.20
2023-06-11T22:51:11.126Z,22.20
2023-06-11T22:53:40.705Z,22.10
2023-06-11T22:56:08.932Z,22.00
2023-06-11T22:58:36.839Z,21.90
2023-06-11T23:01:04.812Z,21.90
2023-06-11T23:03:32.843Z,21.90
2023-06-11T23:06:01.147Z,21.90
2023-06-11T23:08:29.963Z,21.80
2023-06-11T23:10:57.902Z,21.70
2023-06-11T23:13:25.978Z,21.60
2023-06-11T23:15:54.002Z,21.60
2023-06-11T23:18:25.321Z,21.60
2023-06-11T23:20:55.041Z,21.40
2023-06-11T23:23:23.748Z,21.40
2023-06-11T23:25:52.263Z,21.30
2023-06-11T23:28:23.818Z,21.20
2023-06-11T23:30:57.496Z,21.10
2023-06-11T23:33:26.831Z,21.00
2023-06-11T23:35:54.738Z,21.00
2023-06-11T23:38:22.577Z,21.00
2023-06-11T23:40:50.706Z,21.00
2023-06-11T23:43:18.790Z,20.90
2023-06-11T23:45:46.920Z,20.90
2023-06-11T23:48:14.979Z,20.80
2023-06-11T23:50:43.409Z,20.70
2023-06-11T23:53:12.277Z,20.60
2023-06-11T23:55:45.082Z,20.60
2023-06-11T23:58:23.061Z,20.50
